createdAt,value
2018-07-24T00:00:02.465Z,22.20
2018-07-24T00:01:02.466Z,23.80
2018-07-24T00:02:02.465Z,21.50
2018-07-24T00:03:02.474Z,21.50
2018-07-24T00:04:02.473Z,23.30
2018-07-24T00:05:02.470Z,23.80
2018-07-24T00:06:02.470Z,24.30
2018-07-24T00:07:02.475Z,22.70
2018-07-24T00:08:02.476Z,22.00
2018-07-24T00:09:02.478Z,23.90
2018-07-24T00:10:02.479Z,23.30
2018-07-24T00:11:02.572Z,24.70
2018-07-24T00:12:02.481Z,23.90
2018-07-24T00:13:02.478Z,23.20
2018-07-24T00:14:02.476Z,22.90
2018-07-24T00:15:02.485Z,23.30
2018-07-24T00:16:02.482Z,22.20
2018-07-24T00:17:02.483Z,24.50
2018-07-24T00:18:02.482Z,23.20
2018-07-24T00:19:02.483Z,22.90
2018-07-24T00:20:02.479Z,25.00
2018-07-24T00:21:02.486Z,25.00
2018-07-24T00:22:02.484Z,24.30
2018-07-24T00:23:02.481Z,24.50
2018-07-24T00:24:02.482Z,24.20
2018-07-24T00:25:02.484Z,24.00
2018-07-24T00:26:02.491Z,22.70
2018-07-24T00:27:02.488Z,23.30
2018-07-24T00:28:02.491Z,25.60
2018-07-24T00:29:02.491Z,24.60
2018-07-24T00:30:02.489Z,23.00
2018-07-24T00:31:02.487Z,23.60
2018-07-24T00:32:02.489Z,23.40
2018-07-24T00:33:02.486Z,23.50
2018-07-24T00:34:02.485Z,23.00
2018-07-24T00:35:02.491Z,24.40
2018-07-24T00:36:02.491Z,22.90
2018-07-24T00:37:02.489Z,23.50
2018-07-24T00:38:02.486Z,22.60
2018-07-24T00:39:02.492Z,23.60
2018-07-24T00:40:02.492Z,24.70
2018-07-24T00:41:02.493Z,25.30
2018-07-24T00:42:02.495Z,22.90
2018-07-24T00:43:02.489Z,23.70
2018-07-24T00:44:02.490Z,24.10
2018-07-24T00:45:02.519Z,22.90
2018-07-24T00:46:02.490Z,22.80
2018-07-24T00:47:02.495Z,22.40
2018-07-24T00:48:02.498Z,22.10
2018-07-24T00:49:02.495Z,22.90
2018-07-24T00:50:02.495Z,22.70
2018-07-24T00:51:02.491Z,22.90
2018-07-24T00:52:02.491Z,23.50
2018-07-24T00:53:02.496Z,23.00
2018-07-24T00:54:02.535Z,23.50
2018-07-24T00:55:02.492Z,23.20
2018-07-24T00:56:02.493Z,24.00
2018-07-24T00:57:02.494Z,22.90
2018-07-24T00:58:02.493Z,23.90
2018-07-24T00:59:02.501Z,23.00
2018-07-24T01:00:02.499Z,23.80
2018-07-24T01:01:02.494Z,23.30
2018-07-24T01:02:02.493Z,23.30
2018-07-24T01:03:02.499Z,22.10
2018-07-24T01:04:02.498Z,22.30
2018-07-24T01:05:02.501Z,22.20
2018-07-24T01:06:02.500Z,22.30
2018-07-24T01:07:02.496Z,21.90
2018-07-24T01:08:02.497Z,23.30
2018-07-24T01:09:02.501Z,22.90
2018-07-24T01:10:02.502Z,22.30
2018-07-24T01:11:02.498Z,23.90
2018-07-24T01:12:02.497Z,22.60
2018-07-24T01:13:02.500Z,23.80
2018-07-24T01:14:02.498Z,23.90
2018-07-24T01:15:02.502Z,22.30
2018-07-24T01:16:02.508Z,22.50
2018-07-24T01:17:02.502Z,22.60
2018-07-24T01:18:02.502Z,22.20
2018-07-24T01:19:02.497Z,22.30
2018-07-24T01:20:02.498Z,22.70
2018-07-24T01:21:02.501Z,22.50
2018-07-24T01:22:02.498Z,22.10
2018-07-24T01:23:02.504Z,22.80
2018-07-24T01:24:02.504Z,23.50
2018-07-24T01:25:02.503Z,23.10
2018-07-24T01:26:02.499Z,22.40
2018-07-24T01:27:02.503Z,22.50
2018-07-24T01:28:02.504Z,23.00
2018-07-24T01:29:02.504Z,22.50
2018-07-24T01:30:02.504Z,22.00
2018-07-24T01:31:02.499Z,22.70
2018-07-24T01:32:02.500Z,22.90
2018-07-24T01:33:02.500Z,23.10
2018-07-24T01:34:02.501Z,22.70
2018-07-24T01:35:02.504Z,23.40
2018-07-24T01:36:02.505Z,22.80
2018-07-24T01:37:02.508Z,23.10
2018-07-24T01:38:02.505Z,22.90
2018-07-24T01:39:02.501Z,23.90
2018-07-24T01:40:02.502Z,24.40
2018-07-24T01:41:02.505Z,23.50
2018-07-24T01:42:02.503Z,23.50
2018-07-24T01:43:02.502Z,24.90
2018-07-24T01:44:02.502Z,23.10
2018-07-24T01:45:02.501Z,23.40
2018-07-24T01:46:02.499Z,22.60
2018-07-24T01:47:02.508Z,23.90
2018-07-24T01:48:02.503Z,23.00
2018-07-24T01:49:02.504Z,23.00
2018-07-24T01:50:02.505Z,22.50
2018-07-24T01:51:02.499Z,23.60
2018-07-24T01:52:02.499Z,22.00
2018-07-24T01:53:02.499Z,23.40
2018-07-24T01:54:02.502Z,23.70
2018-07-24T01:55:02.504Z,22.90
2018-07-24T01:56:02.503Z,22.00
2018-07-24T01:57:02.499Z,24.10
2018-07-24T01:58:02.498Z,21.90
2018-07-24T01:59:02.504Z,24.70
2018-07-24T02:00:02.505Z,22.40
2018-07-24T02:01:02.505Z,22.80
2018-07-24T02:02:02.504Z,22.80
2018-07-24T02:03:02.498Z,23.50
2018-07-24T02:04:02.499Z,23.90
2018-07-24T02:05:02.498Z,22.80
2018-07-24T02:06:02.497Z,23.50
2018-07-24T02:07:02.503Z,22.50
2018-07-24T02:08:02.503Z,24.20
2018-07-24T02:09:02.503Z,23.50
2018-07-24T02:10:02.501Z,24.20
2018-07-24T02:11:02.497Z,23.60
2018-07-24T02:12:02.497Z,23.60
2018-07-24T02:13:02.513Z,23.80
2018-07-24T02:14:02.500Z,24.10
2018-07-24T02:15:02.496Z,23.60
2018-07-24T02:16:02.496Z,23.60
2018-07-24T02:17:02.496Z,23.00
2018-07-24T02:18:02.496Z,23.30
2018-07-24T02:19:02.500Z,22.60
2018-07-24T02:20:02.501Z,23.90
2018-07-24T02:21:02.501Z,25.50
2018-07-24T02:22:02.500Z,24.10
2018-07-24T02:23:02.494Z,24.40
2018-07-24T02:24:02.496Z,23.90
2018-07-24T02:25:02.494Z,23.60
2018-07-24T02:26:02.494Z,24.70
2018-07-24T02:27:02.499Z,23.70
2018-07-24T02:28:02.497Z,24.30
2018-07-24T02:29:02.494Z,23.90
2018-07-24T02:30:02.494Z,25.10
2018-07-24T02:31:02.497Z,24.20
2018-07-24T02:32:02.496Z,24.20
2018-07-24T02:33:02.496Z,24.00
2018-07-24T02:34:02.496Z,24.40
2018-07-24T02:35:02.491Z,24.50
2018-07-24T02:36:02.492Z,25.70
2018-07-24T02:37:02.491Z,24.10
2018-07-24T02:38:02.490Z,24.30
2018-07-24T02:39:02.493Z,23.40
2018-07-24T02:40:02.495Z,24.00
2018-07-24T02:41:02.494Z,24.00
2018-07-24T02:42:02.502Z,22.50
2018-07-24T02:43:02.490Z,24.90
2018-07-24T02:44:02.488Z,24.70
2018-07-24T02:45:02.493Z,23.70
2018-07-24T02:46:02.491Z,24.30
2018-07-24T02:47:02.487Z,24.00
2018-07-24T02:48:02.486Z,24.00
2018-07-24T02:49:02.488Z,23.30
2018-07-24T02:50:02.485Z,23.00
2018-07-24T02:51:02.499Z,23.30
2018-07-24T02:52:02.491Z,22.70
2018-07-24T02:53:02.489Z,22.70
2018-07-24T02:54:02.502Z,23.40
2018-07-24T02:55:02.483Z,23.70
2018-07-24T02:56:02.483Z,22.50
2018-07-24T02:57:02.483Z,23.00
2018-07-24T02:58:02.488Z,23.30
2018-07-24T02:59:02.486Z,24.20
2018-07-24T03:00:02.488Z,23.40
2018-07-24T03:01:02.481Z,23.50
2018-07-24T03:02:02.481Z,23.90
2018-07-24T03:03:02.486Z,25.50
2018-07-24T03:04:02.484Z,25.00
2018-07-24T03:05:02.485Z,25.10
2018-07-24T03:06:02.487Z,25.20
2018-07-24T03:07:02.478Z,24.60
2018-07-24T03:08:02.479Z,25.30
2018-07-24T03:09:02.478Z,24.10
2018-07-24T03:10:02.476Z,24.80
2018-07-24T03:11:02.483Z,24.30
2018-07-24T03:12:02.480Z,23.50
2018-07-24T03:13:02.480Z,24.50
2018-07-24T03:14:02.480Z,24.10
2018-07-24T03:15:02.477Z,23.20
2018-07-24T03:16:02.490Z,22.60
2018-07-24T03:17:02.481Z,25.30
2018-07-24T03:18:02.478Z,26.20
2018-07-24T03:19:02.476Z,24.30
2018-07-24T03:20:02.472Z,25.30
2018-07-24T03:21:02.472Z,23.80
2018-07-24T03:22:02.471Z,25.40
2018-07-24T03:23:02.474Z,26.10
2018-07-24T03:24:02.475Z,26.20
2018-07-24T03:25:02.474Z,24.90
2018-07-24T03:26:02.483Z,24.80
2018-07-24T03:27:02.470Z,26.40
2018-07-24T03:28:02.468Z,24.80
2018-07-24T03:29:02.468Z,25.70
2018-07-24T03:30:02.473Z,26.00
2018-07-24T03:31:02.472Z,25.90
2018-07-24T03:32:02.470Z,25.20
2018-07-24T03:33:02.467Z,23.40
2018-07-24T03:34:02.466Z,25.00
2018-07-24T03:35:02.469Z,25.80
2018-07-24T03:36:02.470Z,24.00
2018-07-24T03:37:02.468Z,25.50
2018-07-24T03:38:02.467Z,25.80
2018-07-24T03:39:02.462Z,26.30
2018-07-24T03:40:02.462Z,25.40
2018-07-24T03:41:02.462Z,24.30
2018-07-24T03:42:02.460Z,25.30
2018-07-24T03:43:02.467Z,26.00
2018-07-24T03:44:02.469Z,25.80
2018-07-24T03:45:02.512Z,25.30
2018-07-24T03:46:02.463Z,24.40
2018-07-24T03:47:02.458Z,24.40
2018-07-24T03:48:02.458Z,23.60
2018-07-24T03:49:02.463Z,23.70
2018-07-24T03:50:02.462Z,26.20
2018-07-24T03:51:02.456Z,25.70
2018-07-24T03:52:02.456Z,26.00
2018-07-24T03:53:02.459Z,25.00
2018-07-24T03:54:02.456Z,25.10
2018-07-24T03:55:02.467Z,24.60
2018-07-24T03:56:02.458Z,24.80
2018-07-24T03:57:02.459Z,24.30
2018-07-24T03:58:02.456Z,24.20
2018-07-24T03:59:02.474Z,25.40
2018-07-24T04:00:02.452Z,24.30
2018-07-24T04:01:02.452Z,24.10
2018-07-24T04:02:02.451Z,23.70
2018-07-24T04:03:02.456Z,23.90
2018-07-24T04:04:02.457Z,25.90
2018-07-24T04:05:02.453Z,23.80
2018-07-24T04:06:02.448Z,24.60
2018-07-24T04:07:02.457Z,24.80
2018-07-24T04:08:02.456Z,23.60
2018-07-24T04:09:02.452Z,24.50
2018-07-24T04:10:02.450Z,24.10
2018-07-24T04:11:02.446Z,25.20
2018-07-24T04:12:02.445Z,25.80
2018-07-24T04:13:02.445Z,25.60
2018-07-24T04:14:02.444Z,24.60
2018-07-24T04:15:02.449Z,23.50
2018-07-24T04:16:02.448Z,24.40
2018-07-24T04:17:02.447Z,23.90
2018-07-24T04:18:02.445Z,23.90
2018-07-24T04:19:02.442Z,23.40
2018-07-24T04:20:02.441Z,24.20
2018-07-24T04:21:02.448Z,24.90
2018-07-24T04:22:02.444Z,25.20
2018-07-24T04:23:02.440Z,24.70
2018-07-24T04:24:02.441Z,25.70
2018-07-24T04:25:02.439Z,26.80
2018-07-24T04:26:02.438Z,27.10
2018-07-24T04:27:02.443Z,25.70
2018-07-24T04:28:02.443Z,25.60
2018-07-24T04:29:02.440Z,24.10
2018-07-24T04:30:02.441Z,24.70
2018-07-24T04:31:02.497Z,25.60
2018-07-24T04:32:02.436Z,25.30
2018-07-24T04:33:02.435Z,25.40
2018-07-24T04:34:02.437Z,24.10
2018-07-24T04:35:02.439Z,24.70
2018-07-24T04:36:02.437Z,24.10
2018-07-24T04:37:02.433Z,25.30
2018-07-24T04:38:02.435Z,24.90
2018-07-24T04:39:02.436Z,25.20
2018-07-24T04:40:02.452Z,25.00
2018-07-24T04:41:02.439Z,22.90
2018-07-24T04:42:02.436Z,23.50
2018-07-24T04:43:02.432Z,24.40
2018-07-24T04:44:02.430Z,25.00
2018-07-24T04:45:02.434Z,25.60
2018-07-24T04:46:02.429Z,25.50
2018-07-24T04:47:02.434Z,25.50
2018-07-24T04:48:02.435Z,26.50
2018-07-24T04:49:02.434Z,24.80
2018-07-24T04:50:02.433Z,25.60
2018-07-24T04:51:02.431Z,25.30
2018-07-24T04:52:02.433Z,23.90
2018-07-24T04:53:02.432Z,25.00
2018-07-24T04:54:02.432Z,27.10
2018-07-24T04:55:02.429Z,26.20
2018-07-24T04:56:02.428Z,25.80
2018-07-24T04:57:02.429Z,25.50
2018-07-24T04:58:02.428Z,26.70
2018-07-24T04:59:02.434Z,26.80
2018-07-24T05:00:02.435Z,24.90
2018-07-24T05:01:02.440Z,25.00
2018-07-24T05:02:02.434Z,24.00
2018-07-24T05:03:02.432Z,27.70
2018-07-24T05:04:02.433Z,24.20
2018-07-24T05:05:02.438Z,24.00
2018-07-24T05:06:02.436Z,24.90
2018-07-24T05:07:02.440Z,24.50
2018-07-24T05:08:02.443Z,24.50
2018-07-24T05:09:02.440Z,25.80
2018-07-24T05:10:02.442Z,25.10
2018-07-24T05:11:02.451Z,24.50
2018-07-24T05:12:02.451Z,25.20
2018-07-24T05:13:02.454Z,25.20
2018-07-24T05:14:02.455Z,25.90
2018-07-24T05:15:02.455Z,25.50
2018-07-24T05:16:02.457Z,25.10
2018-07-24T05:17:02.464Z,22.30
2018-07-24T05:18:02.462Z,23.20
2018-07-24T05:19:02.500Z,22.70
2018-07-24T05:20:02.476Z,24.40
2018-07-24T05:21:02.478Z,24.70
2018-07-24T05:22:02.480Z,24.40
2018-07-24T05:23:02.479Z,24.20
2018-07-24T05:24:02.484Z,24.90
2018-07-24T05:25:02.492Z,25.30
2018-07-24T05:26:02.496Z,24.10
2018-07-24T05:27:02.496Z,24.40
2018-07-24T05:28:02.504Z,23.80
2018-07-24T05:29:02.506Z,24.00
2018-07-24T05:30:02.511Z,24.60
2018-07-24T05:31:02.519Z,24.10
2018-07-24T05:32:02.526Z,27.40
2018-07-24T05:33:02.570Z,33.60
2018-07-24T05:34:02.535Z,48.90
2018-07-24T05:35:02.536Z,74.40
2018-07-24T05:36:02.542Z,94.00
2018-07-24T05:37:02.547Z,53.50
2018-07-24T05:38:02.556Z,33.60
2018-07-24T05:39:02.562Z,23.10
2018-07-24T05:40:02.567Z,23.20
2018-07-24T05:41:02.569Z,25.50
2018-07-24T05:42:02.574Z,27.80
2018-07-24T05:43:02.585Z,25.90
2018-07-24T05:44:02.591Z,22.20
2018-07-24T05:45:02.601Z,24.10
2018-07-24T05:46:02.605Z,23.20
2018-07-24T05:47:02.606Z,19.20
2018-07-24T05:48:02.613Z,20.40
2018-07-24T05:49:02.726Z,18.90
2018-07-24T05:50:02.628Z,16.70
2018-07-24T05:51:02.639Z,19.20
2018-07-24T05:52:02.648Z,16.60
2018-07-24T05:53:02.653Z,16.30
2018-07-24T05:54:02.661Z,16.90
2018-07-24T05:55:02.702Z,16.10
2018-07-24T05:56:02.670Z,14.30
2018-07-24T05:57:02.682Z,14.70
2018-07-24T05:58:02.689Z,14.00
2018-07-24T05:59:02.693Z,16.50
2018-07-24T06:00:02.702Z,14.60
2018-07-24T06:01:02.709Z,14.80
2018-07-24T06:02:02.773Z,15.80
2018-07-24T06:03:02.731Z,14.50
2018-07-24T06:04:02.740Z,14.50
2018-07-24T06:05:02.749Z,15.80
2018-07-24T06:06:02.757Z,14.50
2018-07-24T06:07:02.760Z,14.80
2018-07-24T06:08:02.770Z,14.40
2018-07-24T06:09:02.778Z,14.30
2018-07-24T06:10:02.786Z,12.90
2018-07-24T06:11:02.803Z,12.50
2018-07-24T06:12:02.809Z,12.50
2018-07-24T06:13:02.850Z,14.40
2018-07-24T06:14:02.823Z,13.20
2018-07-24T06:15:02.838Z,12.60
2018-07-24T06:16:02.846Z,13.20
2018-07-24T06:17:02.913Z,12.70
2018-07-24T06:18:02.868Z,14.40
2018-07-24T06:19:02.873Z,15.80
2018-07-24T06:20:02.882Z,13.30
2018-07-24T06:21:02.893Z,12.60
2018-07-24T06:22:02.901Z,13.40
2018-07-24T06:23:02.915Z,13.00
2018-07-24T06:24:02.927Z,12.90
2018-07-24T06:25:02.937Z,12.10
2018-07-24T06:26:02.950Z,13.70
2018-07-24T06:27:02.952Z,12.40
2018-07-24T06:28:02.962Z,13.30
2018-07-24T06:29:02.977Z,14.70
2018-07-24T06:30:02.993Z,13.20
2018-07-24T06:31:02.993Z,12.10
2018-07-24T06:32:03.003Z,11.20
2018-07-24T06:33:03.015Z,12.30
2018-07-24T06:34:03.024Z,12.30
2018-07-24T06:35:03.086Z,13.00
2018-07-24T06:36:03.052Z,12.50
2018-07-24T06:37:03.063Z,11.70
2018-07-24T06:38:03.072Z,11.20
2018-07-24T06:39:03.079Z,13.20
2018-07-24T06:40:03.091Z,12.00
2018-07-24T06:41:03.103Z,10.50
2018-07-24T06:42:03.114Z,11.70
2018-07-24T06:43:03.131Z,10.50
2018-07-24T06:44:03.142Z,11.00
2018-07-24T06:45:03.154Z,11.20
2018-07-24T06:46:03.159Z,11.10
2018-07-24T06:47:03.176Z,11.20
2018-07-24T06:48:03.191Z,12.50
2018-07-24T06:49:03.199Z,11.10
2018-07-24T06:50:03.212Z,11.30
2018-07-24T06:51:03.273Z,11.40
2018-07-24T06:52:03.253Z,10.90
2018-07-24T06:53:03.244Z,10.90
2018-07-24T06:54:03.254Z,11.30
2018-07-24T06:55:03.271Z,10.30
2018-07-24T06:56:03.285Z,10.50
2018-07-24T06:57:03.321Z,10.80
2018-07-24T06:58:03.309Z,9.80
2018-07-24T06:59:03.316Z,10.70
2018-07-24T07:00:03.332Z,10.70
2018-07-24T07:01:03.347Z,11.60
2018-07-24T07:02:03.417Z,10.80
2018-07-24T07:03:03.367Z,10.80
2018-07-24T07:04:03.381Z,10.30
2018-07-24T07:05:03.432Z,10.20
2018-07-24T07:06:03.406Z,10.30
2018-07-24T07:07:03.424Z,11.00
2018-07-24T07:08:03.438Z,10.40
2018-07-24T07:09:03.451Z,9.90
2018-07-24T07:10:03.465Z,9.40
2018-07-24T07:11:03.473Z,9.10
2018-07-24T07:12:03.486Z,10.00
2018-07-24T07:13:03.609Z,9.90
2018-07-24T07:14:03.515Z,8.80
2018-07-24T07:15:03.533Z,9.00
2018-07-24T07:16:03.547Z,9.30
2018-07-24T07:17:03.555Z,9.10
2018-07-24T07:18:03.569Z,8.90
2018-07-24T07:19:03.589Z,8.60
2018-07-24T07:20:03.603Z,9.00
2018-07-24T07:21:03.617Z,9.00
2018-07-24T07:22:03.633Z,9.50
2018-07-24T07:23:03.640Z,9.00
2018-07-24T07:24:03.655Z,8.90
2018-07-24T07:25:03.670Z,9.20
2018-07-24T07:26:03.711Z,10.40
2018-07-24T07:27:03.704Z,10.40
2018-07-24T07:28:03.719Z,9.10
2018-07-24T07:29:03.737Z,8.60
2018-07-24T07:30:03.746Z,9.00
2018-07-24T07:31:03.759Z,8.90
2018-07-24T07:32:03.774Z,8.20
2018-07-24T07:33:03.792Z,8.30
2018-07-24T07:34:03.807Z,8.20
2018-07-24T07:35:03.817Z,8.00
2018-07-24T07:36:03.833Z,7.90
2018-07-24T07:37:03.850Z,7.90
2018-07-24T07:38:03.863Z,7.90
2018-07-24T07:39:03.885Z,7.80
2018-07-24T07:40:03.900Z,8.30
2018-07-24T07:41:03.916Z,9.00
2018-07-24T07:42:03.930Z,8.30
2018-07-24T07:43:03.942Z,8.00
2018-07-24T07:44:03.989Z,8.10
2018-07-24T07:45:03.974Z,7.60
2018-07-24T07:46:03.989Z,8.00
2018-07-24T07:47:04.011Z,7.20
2018-07-24T07:48:04.031Z,7.60
2018-07-24T07:49:04.038Z,7.20
2018-07-24T07:50:04.056Z,6.80
2018-07-24T07:51:04.077Z,6.50
2018-07-24T07:52:04.093Z,6.60
2018-07-24T07:53:04.111Z,6.50
2018-07-24T07:54:04.127Z,9.00
2018-07-24T07:55:04.139Z,6.60
2018-07-24T07:56:04.155Z,6.50
2018-07-24T07:57:04.173Z,5.80
2018-07-24T07:58:04.191Z,5.60
2018-07-24T07:59:04.213Z,5.80
2018-07-24T08:00:04.230Z,5.80
2018-07-24T08:01:04.247Z,6.10
2018-07-24T08:02:04.264Z,6.30
2018-07-24T08:03:04.276Z,5.50
2018-07-24T08:04:04.295Z,6.20
2018-07-24T08:05:04.317Z,5.70
2018-07-24T08:06:04.333Z,5.80
2018-07-24T08:07:04.348Z,5.70
2018-07-24T08:08:04.365Z,5.30
2018-07-24T08:09:04.386Z,5.80
2018-07-24T08:10:04.402Z,5.60
2018-07-24T08:29:04.745Z,16.70
2018-07-24T08:30:04.763Z,7.70
2018-07-24T08:31:04.790Z,4.60
2018-07-24T08:32:04.806Z,4.70
2018-07-24T08:33:04.830Z,4.80
2018-07-24T08:34:04.845Z,5.00
2018-07-24T08:35:04.860Z,5.20
2018-07-24T08:36:04.879Z,5.00
2018-07-24T08:37:04.903Z,4.80
2018-07-24T08:38:04.923Z,4.70
2018-07-24T08:39:04.938Z,4.80
2018-07-24T08:40:04.958Z,4.80
2018-07-24T08:41:04.978Z,5.10
2018-07-24T08:42:04.997Z,4.80
2018-07-24T08:43:05.021Z,4.80
2018-07-24T08:44:05.041Z,4.80
2018-07-24T08:45:05.063Z,5.00
2018-07-24T08:46:05.081Z,4.80
2018-07-24T08:47:05.102Z,4.80
2018-07-24T08:48:05.120Z,5.00
2018-07-24T08:49:05.170Z,4.70
2018-07-24T08:50:05.159Z,4.90
2018-07-24T08:51:05.186Z,5.60
2018-07-24T08:52:05.205Z,4.50
2018-07-24T08:53:05.386Z,4.70
2018-07-24T08:54:05.432Z,4.80
2018-07-24T08:55:05.486Z,4.80
2018-07-24T08:56:05.291Z,5.00
2018-07-24T08:57:05.311Z,4.80
2018-07-24T08:58:05.331Z,4.70
2018-07-24T08:59:05.348Z,4.70
2018-07-24T09:00:05.370Z,4.80
2018-07-24T09:01:05.391Z,4.50
2018-07-24T09:02:05.411Z,4.90
2018-07-24T09:03:05.444Z,4.90
2018-07-24T09:04:05.518Z,5.00
2018-07-24T09:05:05.482Z,5.10
2018-07-24T09:06:05.503Z,4.60
2018-07-24T09:07:05.523Z,5.10
2018-07-24T09:08:05.542Z,4.60
2018-07-24T09:09:05.568Z,4.80
2018-07-24T09:10:05.625Z,4.80
2018-07-24T09:11:05.605Z,4.50
2018-07-24T09:12:05.627Z,4.70
2018-07-24T09:13:05.648Z,4.80
2018-07-24T09:14:05.671Z,4.60
2018-07-24T09:15:05.696Z,4.60
2018-07-24T09:16:05.718Z,4.40
2018-07-24T09:17:05.740Z,4.80
2018-07-24T09:18:05.764Z,4.40
2018-07-24T09:19:05.780Z,4.50
2018-07-24T09:20:05.802Z,4.70
2018-07-24T09:21:05.826Z,4.60
2018-07-24T09:22:05.846Z,5.90
2018-07-24T09:23:05.879Z,4.70
2018-07-24T09:24:05.896Z,5.00
2018-07-24T09:25:05.913Z,5.00
2018-07-24T09:26:05.935Z,4.90
2018-07-24T09:27:05.976Z,4.80
2018-07-24T09:28:05.985Z,4.50
2018-07-24T09:29:06.007Z,3.90
2018-07-24T09:30:06.029Z,4.70
2018-07-24T09:31:06.047Z,5.50
2018-07-24T09:32:06.134Z,4.80
2018-07-24T09:33:06.094Z,4.80
2018-07-24T09:34:06.114Z,4.60
2018-07-24T09:35:06.142Z,4.70
2018-07-24T09:36:06.167Z,4.70
2018-07-24T09:37:06.189Z,4.80
2018-07-24T09:38:06.210Z,5.30
2018-07-24T09:39:06.230Z,5.00
2018-07-24T09:40:06.253Z,4.80
2018-07-24T09:41:06.279Z,4.80
2018-07-24T09:42:06.302Z,4.70
2018-07-24T09:43:06.320Z,4.80
2018-07-24T09:44:06.343Z,5.40
2018-07-24T09:45:06.366Z,5.20
2018-07-24T09:46:06.388Z,4.70
2018-07-24T09:47:06.417Z,5.00
2018-07-24T09:48:06.438Z,5.30
2018-07-24T09:49:06.466Z,5.50
2018-07-24T09:50:06.487Z,5.60
2018-07-24T09:51:06.500Z,5.00
2018-07-24T09:52:06.522Z,5.00
2018-07-24T09:53:06.547Z,5.40
2018-07-24T09:54:06.566Z,5.00
2018-07-24T09:55:06.594Z,5.20
2018-07-24T09:56:06.615Z,5.10
2018-07-24T09:57:06.633Z,4.90
2018-07-24T09:58:06.659Z,5.00
2018-07-24T09:59:06.681Z,4.80
2018-07-24T10:00:06.705Z,5.10
2018-07-24T10:01:06.727Z,5.20
2018-07-24T10:02:06.750Z,6.20
2018-07-24T10:03:06.766Z,4.80
2018-07-24T10:04:06.790Z,5.40
2018-07-24T10:05:06.847Z,5.00
2018-07-24T10:06:06.834Z,5.00
2018-07-24T10:07:06.862Z,5.20
2018-07-24T10:08:06.884Z,5.20
2018-07-24T10:09:06.906Z,5.20
2018-07-24T10:10:06.928Z,4.80
2018-07-24T10:11:07.043Z,5.00
2018-07-24T10:12:06.992Z,5.10
2018-07-24T10:13:07.108Z,4.90
2018-07-24T10:14:07.017Z,5.20
2018-07-24T10:15:07.037Z,4.80
2018-07-24T10:16:07.059Z,4.80
2018-07-24T10:17:07.085Z,4.50
2018-07-24T10:18:07.107Z,4.50
2018-07-24T10:19:07.135Z,4.80
2018-07-24T10:20:07.156Z,4.60
2018-07-24T10:21:07.179Z,4.60
2018-07-24T10:22:07.203Z,4.40
2018-07-24T10:23:07.220Z,4.90
2018-07-24T10:24:07.245Z,4.60
2018-07-24T10:25:07.273Z,4.70
2018-07-24T10:26:07.290Z,4.60
2018-07-24T10:27:07.320Z,5.00
2018-07-24T10:28:07.342Z,5.40
2018-07-24T10:29:07.361Z,5.20
2018-07-24T10:30:07.384Z,7.70
2018-07-24T10:31:07.414Z,5.60
2018-07-24T10:32:07.436Z,6.00
2018-07-24T10:33:07.460Z,5.90
2018-07-24T10:34:07.486Z,5.90
2018-07-24T10:35:07.500Z,5.40
2018-07-24T10:36:07.524Z,5.80
2018-07-24T10:37:07.547Z,5.70
2018-07-24T10:38:07.570Z,6.00
2018-07-24T10:39:07.597Z,6.60
2018-07-24T10:40:07.620Z,8.20
2018-07-24T10:41:07.645Z,5.80
2018-07-24T10:42:07.664Z,5.90
2018-07-24T10:43:07.749Z,6.20
2018-07-24T10:44:07.705Z,5.90
2018-07-24T10:45:07.733Z,6.20
2018-07-24T10:46:07.752Z,6.70
2018-07-24T10:47:07.769Z,6.80
2018-07-24T10:48:07.791Z,6.60
2018-07-24T10:49:07.850Z,8.30
2018-07-24T10:50:07.834Z,6.80
2018-07-24T10:51:07.857Z,6.90
2018-07-24T10:52:07.905Z,6.60
2018-07-24T10:53:07.900Z,7.00
2018-07-24T10:54:07.918Z,6.90
2018-07-24T10:55:07.934Z,7.20
2018-07-24T10:56:07.954Z,8.20
2018-07-24T10:57:07.974Z,7.30
2018-07-24T10:58:07.995Z,7.80
2018-07-24T10:59:08.017Z,7.10
2018-07-24T11:00:08.037Z,7.10
2018-07-24T11:01:08.051Z,7.20
2018-07-24T11:02:08.069Z,7.10
2018-07-24T11:03:08.094Z,7.40
2018-07-24T11:04:08.113Z,7.90
2018-07-24T11:05:08.169Z,7.60
2018-07-24T11:06:08.152Z,7.70
2018-07-24T11:07:08.164Z,7.40
2018-07-24T11:08:08.184Z,7.10
2018-07-24T11:09:08.203Z,7.00
2018-07-24T11:10:08.221Z,6.90
2018-07-24T11:11:08.247Z,7.40
2018-07-24T11:12:08.265Z,7.20
2018-07-24T11:13:08.285Z,8.80
2018-07-24T11:14:08.304Z,7.30
2018-07-24T11:15:08.319Z,7.10
2018-07-24T11:16:08.337Z,7.10
2018-07-24T11:17:08.363Z,7.20
2018-07-24T11:18:08.384Z,7.20
2018-07-24T11:19:08.395Z,7.10
2018-07-24T11:20:08.419Z,7.00
2018-07-24T11:21:08.434Z,7.20
2018-07-24T11:22:08.571Z,7.10
2018-07-24T11:23:08.578Z,7.40
2018-07-24T11:24:08.515Z,7.50
2018-07-24T11:25:08.518Z,8.50
2018-07-24T11:26:08.536Z,8.40
2018-07-24T11:27:08.551Z,8.50
2018-07-24T11:28:08.573Z,8.60
2018-07-24T11:29:08.590Z,9.40
2018-07-24T11:30:08.608Z,9.10
2018-07-24T11:31:08.633Z,9.30
2018-07-24T11:32:08.651Z,9.30
2018-07-24T11:33:08.853Z,9.80
2018-07-24T11:34:08.680Z,10.40
2018-07-24T11:35:08.703Z,9.90
2018-07-24T11:36:08.881Z,9.80
2018-07-24T11:37:08.737Z,10.50
2018-07-24T11:38:08.763Z,10.20
2018-07-24T11:39:08.765Z,10.30
2018-07-24T11:40:08.780Z,10.30
2018-07-24T11:41:08.822Z,10.50
2018-07-24T11:42:08.811Z,10.80
2018-07-24T11:43:08.831Z,10.80
2018-07-24T11:44:08.879Z,11.20
2018-07-24T11:45:08.859Z,11.10
2018-07-24T11:46:08.873Z,10.70
2018-07-24T11:47:08.883Z,11.10
2018-07-24T11:48:08.915Z,10.80
2018-07-24T11:49:08.916Z,10.70
2018-07-24T11:50:08.928Z,11.30
2018-07-24T11:51:08.937Z,10.70
2018-07-24T11:52:08.952Z,11.40
2018-07-24T11:53:08.968Z,12.00
2018-07-24T11:54:08.976Z,12.10
2018-07-24T11:55:08.992Z,11.80
2018-07-24T11:56:09.007Z,11.70
2018-07-24T11:57:09.018Z,11.40
2018-07-24T11:58:09.032Z,11.30
2018-07-24T11:59:09.036Z,11.40
2018-07-24T12:00:09.049Z,11.40
2018-07-24T12:01:09.059Z,11.20
2018-07-24T12:02:09.069Z,11.40
2018-07-24T12:03:09.086Z,13.00
2018-07-24T12:04:09.097Z,12.00
2018-07-24T12:05:09.102Z,12.20
2018-07-24T12:06:09.112Z,13.90
2018-07-24T12:07:09.127Z,12.20
2018-07-24T12:08:09.138Z,12.80
2018-07-24T12:09:09.149Z,12.00
2018-07-24T12:10:09.193Z,12.20
2018-07-24T12:11:09.163Z,12.70
2018-07-24T12:12:09.174Z,12.60
2018-07-24T12:13:09.184Z,11.70
2018-07-24T12:14:09.192Z,12.20
2018-07-24T12:15:09.225Z,12.00
2018-07-24T12:16:09.218Z,11.30
2018-07-24T12:17:09.231Z,11.40
2018-07-24T12:18:09.236Z,13.10
2018-07-24T12:19:09.240Z,11.40
2018-07-24T12:20:09.254Z,11.90
2018-07-24T12:21:09.269Z,12.80
2018-07-24T12:22:09.272Z,12.30
2018-07-24T12:23:09.277Z,11.70
2018-07-24T12:24:09.286Z,12.20
2018-07-24T12:25:09.296Z,11.50
2018-07-24T12:26:09.304Z,12.50
2018-07-24T12:27:09.334Z,11.30
2018-07-24T12:28:09.334Z,11.50
2018-07-24T12:29:09.338Z,11.30
2018-07-24T12:30:09.348Z,11.50
2018-07-24T12:31:09.350Z,11.30
2018-07-24T12:32:09.362Z,11.30
2018-07-24T12:33:09.367Z,11.10
2018-07-24T12:34:09.376Z,11.00
2018-07-24T12:35:09.391Z,11.40
2018-07-24T12:36:09.519Z,10.80
2018-07-24T12:37:09.403Z,11.00
2018-07-24T12:38:09.410Z,11.70
2018-07-24T12:39:09.424Z,10.90
2018-07-24T12:40:09.436Z,11.30
2018-07-24T12:41:09.443Z,11.20
2018-07-24T12:42:09.463Z,11.30
2018-07-24T12:43:09.456Z,10.70
2018-07-24T12:44:09.464Z,11.00
2018-07-24T12:45:09.473Z,11.10
2018-07-24T12:46:09.480Z,10.90
2018-07-24T12:47:09.493Z,11.00
2018-07-24T12:48:09.506Z,10.80
2018-07-24T12:49:09.512Z,12.00
2018-07-24T12:50:09.520Z,10.80
2018-07-24T12:51:09.523Z,11.20
2018-07-24T12:52:09.533Z,11.40
2018-07-24T12:53:09.546Z,11.70
2018-07-24T12:54:09.554Z,11.50
2018-07-24T12:55:09.559Z,12.00
2018-07-24T12:56:09.567Z,11.50
2018-07-24T12:57:09.574Z,11.40
2018-07-24T12:58:09.583Z,12.00
2018-07-24T12:59:09.595Z,11.70
2018-07-24T13:00:09.604Z,12.40
2018-07-24T13:01:09.614Z,13.80
2018-07-24T13:02:09.618Z,11.70
2018-07-24T13:03:09.626Z,11.80
2018-07-24T13:04:09.695Z,12.10
2018-07-24T13:05:09.640Z,11.80
2018-07-24T13:06:09.647Z,11.60
2018-07-24T13:07:09.661Z,12.50
2018-07-24T13:08:09.669Z,11.70
2018-07-24T13:09:09.675Z,11.80
2018-07-24T13:10:09.803Z,12.00
2018-07-24T13:11:09.692Z,12.40
2018-07-24T13:12:09.701Z,11.90
2018-07-24T13:13:09.709Z,11.30
2018-07-24T13:14:09.715Z,12.50
2018-07-24T13:15:09.720Z,11.10
2018-07-24T13:16:09.727Z,11.50
2018-07-24T13:17:09.736Z,11.40
2018-07-24T13:18:09.743Z,12.00